createdAt,value
2018-09-01T00:01:27.063Z,11.63
2018-09-01T00:03:57.479Z,11.77
2018-09-01T00:06:27.397Z,9.73
2018-09-01T00:08:57.534Z,12.40
2018-09-01T00:11:27.629Z,8.43
2018-09-01T00:13:57.518Z,9.97
2018-09-01T00:16:27.451Z,16.23
2018-09-01T00:18:57.428Z,11.77
2018-09-01T00:21:27.861Z,10.40
2018-09-01T00:23:57.965Z,16.37
2018-09-01T00:26:27.882Z,10.93
2018-09-01T00:28:57.912Z,9.47
2018-09-01T00:31:27.922Z,11.90
2018-09-01T00:33:57.864Z,12.27
2018-09-01T00:36:27.781Z,10.60
2018-09-01T00:39:02.797Z,8.07
2018-09-01T00:41:33.447Z,13.13
2018-09-01T00:44:03.447Z,10.37
2018-09-01T00:46:34.442Z,13.73
2018-09-01T00:49:04.542Z,10.93
2018-09-01T00:51:34.405Z,12.03
2018-09-01T00:54:04.387Z,8.30
2018-09-01T00:56:34.402Z,14.60
2018-09-01T00:59:04.773Z,11.33
2018-09-01T01:01:34.872Z,10.13
2018-09-01T01:04:04.990Z,11.17
2018-09-01T01:06:34.797Z,13.03
2018-09-01T01:09:04.854Z,11.77
2018-09-01T01:11:34.639Z,13.50
2018-09-01T01:14:04.805Z,10.80
2018-09-01T01:16:34.815Z,13.20
2018-09-01T01:19:04.651Z,9.93
2018-09-01T01:21:41.054Z,14.67
2018-09-01T01:24:10.908Z,17.23
2018-09-01T01:26:40.703Z,11.17
2018-09-01T01:29:10.901Z,12.70
2018-09-01T01:31:40.738Z,10.83
2018-09-01T01:34:10.822Z,14.80
2018-09-01T01:36:40.761Z,10.93
2018-09-01T01:39:10.592Z,12.73
2018-09-01T01:41:40.643Z,10.97
2018-09-01T01:44:10.643Z,17.13
2018-09-01T01:46:40.425Z,13.70
2018-09-01T01:49:10.457Z,14.97
2018-09-01T01:51:40.749Z,13.97
2018-09-01T01:54:10.644Z,15.47
2018-09-01T01:56:40.576Z,14.77
2018-09-01T01:59:10.534Z,11.43
2018-09-01T02:01:40.524Z,20.13
2018-09-01T02:04:10.529Z,16.10
2018-09-01T02:06:40.485Z,14.53
2018-09-01T02:09:10.456Z,13.27
2018-09-01T02:11:40.341Z,17.48
2018-09-01T02:14:10.226Z,16.07
2018-09-01T02:16:40.460Z,16.43
2018-09-01T02:19:10.306Z,21.87
2018-09-01T02:21:40.468Z,17.95
2018-09-01T02:24:10.441Z,20.52
2018-09-01T02:26:40.363Z,22.87
2018-09-01T02:29:10.261Z,18.97
2018-09-01T02:31:40.190Z,21.30
2018-09-01T02:34:10.131Z,21.03
2018-09-01T02:36:40.172Z,21.23
2018-09-01T02:39:10.366Z,21.23
2018-09-01T02:41:40.289Z,22.47
2018-09-01T02:44:10.303Z,20.87
2018-09-01T02:46:40.207Z,16.67
2018-09-01T02:49:10.053Z,20.73
2018-09-01T02:51:40.256Z,16.00
2018-09-01T02:54:10.112Z,21.83
2018-09-01T02:56:39.979Z,21.13
2018-09-01T02:59:09.958Z,21.77
2018-09-01T03:01:39.904Z,18.53
2018-09-01T03:04:09.802Z,23.57
2018-09-01T03:06:51.925Z,19.03
2018-09-01T03:09:22.593Z,14.90
2018-09-01T03:11:53.199Z,21.03
2018-09-01T03:14:24.335Z,20.03
2018-09-01T03:16:55.189Z,14.77
2018-09-01T03:19:26.148Z,17.23
2018-09-01T03:21:56.197Z,15.37
2018-09-01T03:24:26.116Z,15.43
2018-09-01T03:26:56.090Z,14.50
2018-09-01T03:29:25.891Z,13.70
2018-09-01T03:31:55.900Z,12.93
2018-09-01T03:34:25.894Z,17.63
2018-09-01T03:36:55.989Z,18.40
2018-09-01T03:39:25.985Z,15.97
2018-09-01T03:41:55.793Z,15.77
2018-09-01T03:44:25.631Z,18.33
2018-09-01T03:46:55.556Z,15.60
2018-09-01T03:49:25.907Z,12.83
2018-09-01T03:51:55.872Z,16.40
2018-09-01T03:54:25.835Z,14.77
2018-09-01T03:56:55.723Z,14.10
2018-09-01T03:59:25.793Z,18.23
2018-09-01T04:01:55.650Z,14.13
2018-09-01T04:04:25.658Z,13.27
2018-09-01T04:06:55.705Z,13.30
2018-09-01T04:09:25.545Z,13.50
2018-09-01T04:11:55.411Z,16.07
2018-09-01T04:14:25.605Z,17.70
2018-09-01T04:16:55.460Z,19.53
2018-09-01T04:19:25.425Z,22.80
2018-09-01T04:21:55.214Z,16.97
2018-09-01T04:24:25.017Z,17.23
2018-09-01T04:26:54.864Z,22.13
2018-09-01T04:29:24.946Z,18.30
2018-09-01T04:31:54.856Z,19.03
2018-09-01T04:34:24.716Z,21.63
2018-09-01T04:36:54.694Z,15.43
2018-09-01T04:39:24.574Z,18.20
2018-09-01T04:41:54.655Z,16.20
2018-09-01T04:44:24.617Z,17.47
2018-09-01T04:46:54.974Z,18.47
2018-09-01T04:49:24.843Z,19.70
2018-09-01T04:51:55.230Z,13.67
2018-09-01T04:54:25.165Z,12.03
2018-09-01T04:56:55.278Z,15.10
2018-09-01T04:59:25.242Z,12.67
2018-09-01T05:01:55.154Z,18.97
2018-09-01T05:04:25.087Z,14.53
2018-09-01T05:06:55.044Z,13.70
2018-09-01T05:09:24.939Z,13.60
2018-09-01T05:11:55.068Z,24.77
2018-09-01T05:14:24.982Z,16.53
2018-09-01T05:16:55.067Z,20.17
2018-09-01T05:19:25.265Z,15.53
2018-09-01T05:21:55.183Z,17.03
2018-09-01T05:24:25.398Z,18.12
2018-09-01T05:26:55.346Z,20.52
2018-09-01T05:29:25.309Z,18.93
2018-09-01T05:31:55.173Z,14.10
2018-09-01T05:34:25.056Z,17.63
2018-09-01T05:36:55.103Z,14.60
2018-09-01T05:39:25.048Z,26.37
2018-09-01T05:41:54.961Z,19.87
2018-09-01T05:44:25.058Z,16.70
2018-09-01T05:46:54.954Z,17.73
2018-09-01T05:49:24.917Z,18.23
2018-09-01T05:51:54.900Z,24.37
2018-09-01T05:54:24.968Z,19.40
2018-09-01T05:56:54.850Z,16.63
2018-09-01T05:59:25.271Z,21.97
2018-09-01T06:01:55.242Z,19.90
2018-09-01T06:04:25.221Z,22.07
2018-09-01T06:06:55.647Z,20.43
2018-09-01T06:09:25.969Z,21.23
2018-09-01T06:11:55.869Z,18.00
2018-09-01T06:14:25.781Z,17.30
2018-09-01T06:16:55.861Z,14.60
2018-09-01T06:19:25.744Z,17.87
2018-09-01T06:21:55.806Z,16.77
2018-09-01T06:24:25.675Z,17.00
2018-09-01T06:26:56.269Z,26.13
2018-09-01T06:29:26.289Z,29.80
2018-09-01T06:32:03.911Z,19.47
2018-09-01T06:34:33.858Z,21.20
2018-09-01T06:37:03.749Z,16.90
2018-09-01T06:39:33.809Z,15.07
2018-09-01T06:42:03.800Z,21.73
2018-09-01T06:44:33.802Z,21.10
2018-09-01T06:47:03.758Z,12.90
2018-09-01T08:21:09.149Z,15.97
2018-09-01T08:23:40.972Z,18.47
2018-09-01T08:26:14.151Z,14.87
2018-09-01T08:28:48.488Z,13.53
2018-09-01T08:34:06.823Z,14.27
2018-09-01T08:36:40.107Z,32.63
2018-09-01T08:39:15.464Z,13.23
2018-09-01T08:41:45.218Z,20.23
2018-09-01T08:44:25.040Z,18.27
2018-09-01T08:46:57.331Z,26.17
2018-09-01T08:49:29.693Z,18.23
2018-09-01T08:52:07.515Z,24.27
2018-09-01T08:54:42.536Z,21.20
2018-09-01T08:57:20.827Z,26.43
2018-09-01T08:59:50.653Z,17.10
2018-09-01T09:02:20.511Z,12.53
2018-09-01T09:04:55.731Z,13.67
2018-09-01T09:07:40.429Z,19.37
2018-09-01T09:10:10.136Z,12.30
2018-09-01T09:12:42.280Z,22.40
2018-09-01T09:15:12.233Z,11.53
2018-09-01T09:17:50.464Z,16.40
2018-09-01T09:24:56.957Z,9.00
2018-09-01T09:27:26.830Z,11.73
2018-09-01T09:29:58.588Z,11.08
2018-09-01T09:32:28.195Z,13.22
2018-09-01T09:34:58.129Z,16.73
2018-09-01T09:37:29.410Z,15.83
2018-09-01T09:39:59.310Z,11.23
2018-09-01T09:42:29.304Z,13.43
2018-09-01T09:44:59.064Z,12.73
2018-09-01T09:47:29.132Z,18.35
2018-09-01T09:49:58.877Z,18.50
2018-09-01T09:52:29.200Z,16.90
2018-09-01T09:55:08.324Z,13.20
2018-09-01T09:57:38.074Z,20.23
2018-09-01T10:00:08.920Z,12.87
2018-09-01T10:02:38.863Z,13.93
2018-09-01T10:05:08.520Z,13.30
2018-09-01T10:07:39.399Z,17.50
2018-09-01T10:10:10.855Z,14.67
2018-09-01T10:12:43.483Z,10.97
2018-09-01T10:15:13.356Z,13.83
2018-09-01T10:17:47.465Z,12.17
2018-09-01T10:20:17.274Z,12.73
2018-09-01T10:22:47.729Z,14.70
2018-09-01T10:25:17.656Z,14.87
2018-09-01T10:27:47.225Z,13.67
2018-09-01T10:30:17.307Z,13.10
2018-09-01T10:32:48.019Z,11.57
2018-09-01T10:35:18.324Z,11.13
2018-09-01T10:37:48.191Z,14.73
2018-09-01T10:40:22.763Z,20.20
2018-09-01T10:42:52.799Z,12.93
2018-09-01T10:45:22.809Z,17.47
2018-09-01T10:47:52.709Z,13.17
2018-09-01T10:50:22.487Z,26.73
2018-09-01T10:52:55.093Z,16.53
2018-09-01T10:55:26.619Z,13.37
2018-09-01T10:57:56.378Z,17.43
2018-09-01T11:00:26.897Z,16.27
2018-09-01T11:02:56.739Z,15.20
2018-09-01T11:05:27.633Z,14.23
2018-09-01T11:07:59.200Z,14.80
2018-09-01T11:10:29.540Z,17.10
2018-09-01T11:12:59.600Z,14.93
2018-09-01T11:15:29.047Z,18.03
2018-09-01T11:18:03.195Z,13.87
2018-09-01T11:20:35.253Z,18.40
2018-09-01T11:23:05.039Z,19.33
2018-09-01T11:25:38.250Z,19.70
2018-09-01T11:28:13.456Z,13.40
2018-09-01T11:30:54.486Z,18.47
2018-09-01T11:33:27.785Z,15.07
2018-09-01T11:36:04.681Z,19.07
2018-09-01T11:38:39.569Z,23.67
2018-09-01T11:41:11.407Z,14.47
2018-09-01T11:43:42.114Z,12.33
2018-09-01T11:46:11.832Z,15.40
2018-09-01T11:48:41.492Z,12.53
2018-09-01T11:51:11.469Z,12.80
2018-09-01T11:53:41.250Z,12.77
2018-09-01T11:58:46.052Z,20.60
2018-09-01T12:01:16.170Z,27.23
2018-09-01T12:03:45.709Z,20.10
2018-09-01T12:06:15.548Z,23.03
2018-09-01T12:08:45.589Z,24.20
2018-09-01T12:11:15.621Z,21.73
2018-09-01T12:13:45.358Z,20.70
2018-09-01T12:16:15.212Z,16.07
2018-09-01T12:18:45.064Z,13.57
2018-09-01T12:21:14.835Z,25.07
2018-09-01T12:23:44.570Z,26.70
2018-09-01T12:26:14.179Z,34.83
2018-09-01T12:28:43.888Z,18.00
2018-09-01T12:31:13.830Z,20.47
2018-09-01T12:33:43.613Z,15.80
2018-09-01T12:36:13.302Z,16.07
2018-09-01T12:38:42.995Z,17.43
2018-09-01T12:41:12.715Z,14.20
2018-09-01T12:43:42.533Z,15.17
2018-09-01T12:46:12.456Z,15.50
2018-09-01T12:48:42.225Z,14.00
2018-09-01T12:51:12.174Z,12.67
2018-09-01T12:53:41.970Z,9.87
2018-09-01T12:56:11.830Z,12.17
2018-09-01T12:58:41.601Z,11.93
2018-09-01T13:01:11.294Z,16.43
2018-09-01T13:03:41.259Z,21.30
2018-09-01T13:06:11.870Z,13.70
2018-09-01T13:08:42.268Z,16.40
2018-09-01T13:11:12.117Z,12.77
2018-09-01T13:13:41.771Z,10.60
2018-09-01T13:16:11.556Z,14.60
2018-09-01T13:18:41.303Z,24.03
2018-09-01T13:21:11.003Z,20.73
2018-09-01T13:23:40.651Z,13.27
2018-09-01T13:26:10.432Z,17.63
2018-09-01T13:28:40.253Z,20.93
2018-09-01T13:31:10.108Z,25.30
2018-09-01T13:33:39.937Z,18.90
2018-09-01T13:36:09.948Z,13.27
2018-09-01T13:38:39.874Z,24.13
2018-09-01T13:41:09.665Z,21.97
2018-09-01T13:43:39.259Z,15.77
2018-09-01T13:46:09.159Z,22.30
2018-09-01T13:48:38.922Z,17.33
2018-09-01T13:51:08.597Z,19.87
2018-09-01T13:53:38.271Z,14.97
2018-09-01T13:56:08.245Z,11.83
2018-09-01T13:58:38.059Z,18.50
2018-09-01T14:01:07.789Z,19.27
2018-09-01T14:03:37.588Z,21.23
2018-09-01T14:06:07.544Z,26.10
2018-09-01T14:08:37.101Z,16.60
2018-09-01T14:11:07.356Z,17.10
2018-09-01T14:13:37.462Z,19.03
2018-09-01T14:16:07.239Z,10.40
2018-09-01T14:18:37.177Z,18.20
2018-09-01T14:21:07.178Z,19.47
2018-09-01T14:23:37.090Z,24.03
2018-09-01T14:26:07.022Z,24.97
2018-09-01T14:28:36.806Z,21.03
2018-09-01T14:31:06.723Z,13.17
2018-09-01T14:33:36.453Z,13.23
2018-09-01T14:36:06.389Z,15.47
2018-09-01T14:38:36.334Z,16.52
2018-09-01T14:41:06.155Z,20.02
2018-09-01T14:43:35.768Z,18.70
2018-09-01T14:46:05.535Z,13.10
2018-09-01T14:48:35.243Z,18.47
2018-09-01T14:51:04.979Z,22.77
2018-09-01T14:53:34.643Z,21.40
2018-09-01T14:56:04.437Z,20.17
2018-09-01T14:58:34.443Z,26.02
2018-09-01T15:01:04.212Z,34.00
2018-09-01T15:03:34.079Z,14.53
2018-09-01T15:06:03.840Z,19.27
2018-09-01T15:08:33.353Z,23.10
2018-09-01T15:11:02.960Z,18.67
2018-09-01T15:13:32.727Z,18.60
2018-09-01T15:16:03.965Z,27.40
2018-09-01T15:18:33.666Z,22.48
2018-09-01T15:21:03.313Z,28.63
2018-09-01T15:23:32.855Z,27.25
2018-09-01T15:26:02.695Z,21.23
2018-09-01T15:28:32.434Z,25.50
2018-09-01T15:31:02.230Z,23.17
2018-09-01T15:33:31.928Z,44.48
2018-09-01T15:36:01.561Z,46.65
2018-09-01T15:38:31.111Z,45.70
2018-09-01T15:41:00.876Z,38.35
2018-09-01T15:43:30.574Z,38.20
2018-09-01T15:46:00.328Z,38.02
2018-09-01T15:48:30.835Z,29.60
2018-09-01T15:51:00.802Z,33.83
2018-09-01T15:53:30.369Z,21.97
2018-09-01T15:55:59.960Z,22.58
2018-09-01T15:58:30.423Z,37.23
2018-09-01T16:01:00.163Z,32.80
2018-09-01T16:03:29.835Z,37.70
2018-09-01T16:05:59.605Z,33.05
2018-09-01T16:08:29.299Z,24.75
2018-09-01T16:10:58.901Z,25.27
2018-09-01T16:13:28.541Z,27.02
2018-09-01T16:15:58.096Z,25.62
2018-09-01T16:18:27.684Z,33.87
2018-09-01T16:20:57.345Z,30.40
2018-09-01T16:23:27.381Z,38.77
2018-09-01T16:25:56.850Z,19.83
2018-09-01T16:28:26.402Z,21.40
2018-09-01T16:30:57.408Z,23.67
2018-09-01T16:33:27.152Z,27.87
2018-09-01T16:35:56.592Z,29.07
2018-09-01T16:38:26.283Z,26.93
2018-09-01T16:40:56.255Z,27.73
2018-09-01T16:43:25.780Z,25.20
2018-09-01T16:45:55.437Z,25.17
2018-09-01T16:48:25.166Z,27.13
2018-09-01T16:50:54.656Z,30.43
2018-09-01T16:53:24.213Z,39.03
2018-09-01T16:55:54.009Z,38.43
2018-09-01T16:58:23.683Z,33.33
2018-09-01T17:00:53.286Z,33.53
2018-09-01T17:03:22.745Z,36.47
2018-09-01T17:08:27.108Z,55.17
2018-09-01T17:10:56.578Z,52.97
2018-09-01T17:13:26.090Z,43.90
2018-09-01T17:15:55.615Z,43.37
2018-09-01T17:18:25.392Z,44.07
2018-09-01T17:20:55.296Z,31.23
2018-09-01T17:23:24.850Z,35.87
2018-09-01T17:25:54.628Z,65.93
2018-09-01T17:28:24.386Z,59.60
2018-09-01T17:30:53.976Z,42.17
2018-09-01T17:33:23.803Z,32.40
2018-09-01T17:35:53.568Z,28.53
2018-09-01T17:38:23.275Z,27.03
2018-09-01T17:40:52.973Z,26.93
2018-09-01T17:43:22.813Z,27.27
2018-09-01T17:45:52.550Z,29.90
2018-09-01T17:48:22.187Z,35.40
2018-09-01T17:50:51.763Z,24.07
2018-09-01T17:53:21.539Z,22.27
2018-09-01T17:55:51.241Z,29.17
2018-09-01T17:58:20.896Z,23.10
2018-09-01T18:00:50.685Z,19.83
2018-09-01T18:03:20.236Z,20.33
2018-09-01T18:05:49.859Z,16.87
2018-09-01T18:08:19.566Z,19.90
2018-09-01T18:10:49.233Z,15.13
2018-09-01T18:13:18.684Z,13.30
2018-09-01T18:15:48.256Z,17.23
2018-09-01T18:18:17.970Z,18.40
2018-09-01T18:20:47.923Z,13.45
2018-09-01T18:23:17.765Z,18.15
2018-09-01T18:25:47.300Z,43.10
2018-09-01T18:30:51.607Z,21.57
2018-09-01T18:33:21.316Z,18.53
2018-09-01T18:35:51.051Z,15.83
2018-09-01T18:38:20.710Z,18.23
2018-09-01T18:40:50.333Z,18.63
2018-09-01T18:43:20.870Z,19.52
2018-09-01T18:45:50.389Z,18.50
2018-09-01T18:48:20.397Z,19.55
2018-09-01T18:50:49.979Z,43.52
2018-09-01T18:53:19.721Z,50.12
2018-09-01T18:55:49.248Z,30.17
2018-09-01T18:58:19.008Z,20.62
2018-09-01T19:00:48.555Z,21.33
2018-09-01T19:03:18.382Z,21.52
2018-09-01T19:05:48.068Z,16.40
2018-09-01T19:08:17.977Z,18.67
2018-09-01T19:10:47.525Z,22.58
2018-09-01T19:13:17.086Z,20.27
2018-09-01T19:15:46.863Z,19.53
2018-09-01T19:18:16.405Z,19.60
2018-09-01T19:20:46.052Z,23.10
2018-09-01T19:23:15.639Z,21.30
2018-09-01T19:25:45.495Z,29.80
2018-09-01T19:28:15.221Z,31.00
2018-09-01T19:30:44.857Z,21.57
2018-09-01T19:33:14.573Z,26.37
2018-09-01T19:35:44.341Z,21.30
2018-09-01T19:38:13.911Z,39.37
2018-09-01T19:40:43.603Z,33.90
2018-09-01T19:43:13.196Z,36.03
2018-09-01T19:45:42.878Z,24.80
2018-09-01T19:48:12.658Z,30.65
2018-09-01T19:50:42.505Z,25.00
2018-09-01T19:53:12.178Z,25.40
2018-09-01T19:55:42.056Z,28.10
2018-09-01T19:58:12.026Z,45.40
2018-09-01T20:00:41.985Z,60.28
2018-09-01T20:03:11.699Z,59.90
2018-09-01T20:05:42.144Z,38.48
2018-09-01T20:08:12.268Z,45.05
2018-09-01T20:10:42.653Z,38.45
2018-09-01T20:13:13.129Z,42.03
2018-09-01T20:15:43.528Z,36.47
2018-09-01T20:18:13.767Z,32.75
2018-09-01T20:20:43.942Z,29.67
2018-09-01T20:23:14.021Z,29.23
2018-09-01T20:25:43.679Z,26.07
2018-09-01T20:28:13.544Z,46.30
2018-09-01T20:30:43.543Z,46.27
2018-09-01T20:33:13.403Z,28.10
2018-09-01T20:35:48.335Z,25.02
2018-09-01T20:38:18.244Z,28.25
2018-09-01T20:40:48.026Z,24.47
2018-09-01T20:43:17.792Z,25.03
2018-09-01T20:45:47.623Z,30.02
2018-09-01T20:48:17.505Z,26.90
2018-09-01T20:50:47.337Z,26.48
2018-09-01T20:53:17.056Z,26.83
2018-09-01T20:55:46.875Z,17.73
2018-09-01T20:58:16.671Z,16.13
2018-09-01T21:00:46.295Z,16.97
2018-09-01T21:03:17.308Z,20.72
2018-09-01T21:05:47.116Z,15.50
2018-09-01T21:08:16.754Z,26.43
2018-09-01T21:10:46.474Z,21.75
2018-09-01T21:13:16.092Z,22.50
2018-09-01T21:15:45.728Z,28.92
2018-09-01T21:18:15.650Z,23.73
2018-09-01T21:20:45.382Z,36.63
2018-09-01T21:23:15.148Z,37.73
2018-09-01T21:25:45.009Z,30.50
2018-09-01T21:28:14.940Z,23.13
2018-09-01T21:30:45.181Z,29.02
2018-09-01T21:33:15.014Z,24.60
2018-09-01T21:35:44.723Z,23.10
2018-09-01T21:38:15.218Z,22.17
2018-09-01T21:40:44.995Z,22.93
2018-09-01T21:43:14.844Z,23.77
2018-09-01T21:45:44.515Z,18.80
2018-09-01T21:48:14.208Z,21.27
2018-09-01T21:50:43.934Z,19.37
2018-09-01T21:53:13.989Z,22.20
2018-09-01T21:55:44.010Z,20.33
2018-09-01T21:58:13.905Z,22.20
2018-09-01T22:00:48.752Z,21.70
2018-09-01T22:03:18.748Z,20.23
2018-09-01T22:05:48.466Z,22.95
2018-09-01T22:08:18.132Z,25.65
2018-09-01T22:10:47.876Z,18.20
2018-09-01T22:13:17.718Z,22.13
2018-09-01T22:15:47.319Z,20.00
2018-09-01T22:18:17.429Z,21.42
2018-09-01T22:20:47.089Z,19.30
2018-09-01T22:23:16.789Z,21.80
2018-09-01T22:25:46.512Z,22.50
2018-09-01T22:28:16.408Z,22.37
2018-09-01T22:30:46.112Z,23.13
2018-09-01T22:33:15.785Z,24.47
2018-09-01T22:35:45.745Z,26.40
2018-09-01T22:38:15.406Z,32.30
2018-09-01T22:40:45.384Z,30.60
2018-09-01T22:43:15.100Z,30.53
2018-09-01T22:45:44.764Z,28.27
2018-09-01T22:48:14.711Z,28.90
2018-09-01T22:50:44.552Z,30.65
2018-09-01T22:53:14.415Z,29.20
2018-09-01T22:55:44.121Z,28.83
2018-09-01T22:58:13.908Z,28.73
2018-09-01T23:00:43.586Z,29.10
2018-09-01T23:03:13.359Z,28.98
2018-09-01T23:05:42.982Z,30.50
2018-09-01T23:08:12.683Z,30.17
2018-09-01T23:10:42.590Z,24.00
2018-09-01T23:13:12.332Z,33.90
2018-09-01T23:15:42.013Z,28.87
2018-09-01T23:18:11.550Z,28.80
2018-09-01T23:20:41.381Z,29.43
2018-09-01T23:23:10.988Z,28.20
2018-09-01T23:25:40.795Z,20.50
2018-09-01T23:28:10.824Z,27.23
2018-09-01T23:30:40.506Z,29.70
2018-09-01T23:33:10.296Z,34.53
2018-09-01T23:35:40.017Z,28.53
2018-09-01T23:38:09.765Z,27.23
2018-09-01T23:40:39.954Z,31.60
2018-09-01T23:43:09.628Z,27.90
2018-09-01T23:45:39.394Z,24.20
2018-09-01T23:48:08.974Z,30.00
2018-09-01T23:50:38.693Z,34.60
2018-09-01T23:53:08.385Z,33.20
2018-09-01T23:55:38.258Z,29.70
2018-09-01T23:58:08.170Z,30.85
